createdAt,value
2023-05-19T00:02:22.979Z,73.00
2023-05-19T00:04:50.216Z,73.10
2023-05-19T00:07:21.657Z,73.10
2023-05-19T00:09:48.885Z,73.10
2023-05-19T00:12:16.294Z,73.00
2023-05-19T00:14:43.609Z,72.90
2023-05-19T00:17:10.847Z,72.80
2023-05-19T00:19:38.233Z,72.80
2023-05-19T00:22:05.524Z,72.80
2023-05-19T00:24:33.248Z,72.90
2023-05-19T00:27:00.853Z,72.90
2023-05-19T00:29:28.590Z,72.80
2023-05-19T00:31:56.966Z,72.70
2023-05-19T00:34:24.112Z,72.70
2023-05-19T00:36:51.905Z,72.60
2023-05-19T00:39:18.904Z,72.60
2023-05-19T00:41:45.895Z,72.50
2023-05-19T00:44:12.943Z,72.50
2023-05-19T00:46:41.334Z,72.60
2023-05-19T00:49:08.442Z,72.60
2023-05-19T00:51:37.112Z,72.50
2023-05-19T00:54:04.625Z,72.50
2023-05-19T00:56:32.602Z,72.50
2023-05-19T00:59:01.257Z,72.50
2023-05-19T01:01:28.531Z,72.40
2023-05-19T01:03:59.142Z,72.30
2023-05-19T01:06:27.859Z,72.30
2023-05-19T01:08:55.198Z,72.30
2023-05-19T01:11:22.228Z,72.30
2023-05-19T01:13:49.630Z,72.30
2023-05-19T01:16:46.550Z,72.40
2023-05-19T01:19:20.615Z,72.40
2023-05-19T01:22:03.223Z,72.50
2023-05-19T01:24:49.708Z,72.50
2023-05-19T01:27:41.974Z,72.60
2023-05-19T01:30:31.374Z,72.60
2023-05-19T01:33:04.646Z,72.60
2023-05-19T01:35:33.478Z,72.80
2023-05-19T01:38:02.039Z,72.80
2023-05-19T01:40:30.246Z,72.90
2023-05-19T01:42:59.399Z,73.00
2023-05-19T01:45:28.961Z,73.00
2023-05-19T01:47:58.869Z,73.10
2023-05-19T01:50:26.187Z,73.20
2023-05-19T01:52:53.266Z,73.30
2023-05-19T01:55:21.333Z,73.40
2023-05-19T01:58:00.169Z,73.40
2023-05-19T02:00:30.050Z,73.50
2023-05-19T02:03:13.761Z,73.60
2023-05-19T02:06:01.479Z,73.60
2023-05-19T02:08:39.656Z,73.60
2023-05-19T02:11:19.494Z,73.50
2023-05-19T02:13:51.335Z,73.50
2023-05-19T02:16:20.727Z,73.60
2023-05-19T02:18:48.150Z,73.60
2023-05-19T02:21:15.228Z,73.60
2023-05-19T02:23:42.372Z,73.60
2023-05-19T02:26:09.435Z,73.60
2023-05-19T02:28:39.305Z,73.60
2023-05-19T02:31:09.002Z,73.60
2023-05-19T02:33:36.477Z,73.50
2023-05-19T02:36:03.620Z,73.60
2023-05-19T02:38:31.079Z,73.60
2023-05-19T02:40:58.692Z,73.80
2023-05-19T02:43:25.886Z,73.90
2023-05-19T02:45:53.113Z,73.90
2023-05-19T02:48:20.214Z,74.00
2023-05-19T02:50:47.319Z,74.10
2023-05-19T02:53:14.450Z,74.20
2023-05-19T02:55:42.288Z,74.20
2023-05-19T02:58:09.279Z,74.30
2023-05-19T03:00:36.325Z,74.30
2023-05-19T03:03:04.686Z,74.30
2023-05-19T03:05:31.792Z,74.30
2023-05-19T03:07:58.980Z,74.30
2023-05-19T03:10:26.298Z,74.20
2023-05-19T03:12:53.433Z,74.10
2023-05-19T03:15:22.986Z,74.10
2023-05-19T03:17:50.137Z,74.10
2023-05-19T03:20:17.621Z,74.00
2023-05-19T03:22:44.731Z,74.00
2023-05-19T03:25:11.781Z,74.00
2023-05-19T03:27:38.913Z,74.00
2023-05-19T03:30:07.326Z,73.90
2023-05-19T03:32:41.256Z,73.90
2023-05-19T03:35:09.075Z,73.90
2023-05-19T03:37:36.076Z,74.00
2023-05-19T03:40:05.452Z,74.20
2023-05-19T03:42:33.688Z,74.30
2023-05-19T03:45:01.213Z,74.30
2023-05-19T03:47:28.363Z,74.30
2023-05-19T03:50:18.731Z,74.40
2023-05-19T03:53:01.084Z,74.40
2023-05-19T03:55:30.685Z,74.60
2023-05-19T03:57:57.674Z,74.60
2023-05-19T04:00:25.053Z,74.80
2023-05-19T04:02:52.252Z,74.90
2023-05-19T04:05:19.419Z,74.90
2023-05-19T04:07:46.947Z,74.90
2023-05-19T04:10:17.275Z,75.00
2023-05-19T04:12:44.288Z,75.10
2023-05-19T04:15:12.120Z,75.20
2023-05-19T04:17:39.751Z,75.20
2023-05-19T04:20:07.271Z,75.30
2023-05-19T04:22:34.449Z,75.40
2023-05-19T04:25:01.814Z,75.40
2023-05-19T04:27:30.114Z,75.50
2023-05-19T04:29:58.188Z,75.60
2023-05-19T04:32:25.828Z,75.60
2023-05-19T04:34:54.040Z,75.60
2023-05-19T04:37:26.272Z,75.60
2023-05-19T04:39:54.247Z,75.50
2023-05-19T04:42:26.329Z,75.50
2023-05-19T04:44:54.637Z,75.40
2023-05-19T04:47:28.228Z,75.40
2023-05-19T04:49:55.923Z,75.40
2023-05-19T04:52:23.818Z,75.50
2023-05-19T04:54:51.292Z,75.60
2023-05-19T04:57:18.401Z,75.70
2023-05-19T04:59:46.432Z,75.80
2023-05-19T05:02:13.751Z,76.00
2023-05-19T05:04:43.605Z,76.10
2023-05-19T05:07:11.186Z,76.20
2023-05-19T05:09:39.011Z,76.30
2023-05-19T05:12:08.038Z,76.40
2023-05-19T05:14:37.075Z,76.50
2023-05-19T05:17:04.950Z,76.60
2023-05-19T05:19:32.923Z,76.70
2023-05-19T05:22:00.613Z,76.80
2023-05-19T05:24:27.950Z,76.90
2023-05-19T05:26:59.445Z,77.10
2023-05-19T05:29:26.700Z,77.20
2023-05-19T05:31:53.936Z,77.40
2023-05-19T05:34:22.278Z,77.50
2023-05-19T05:36:49.257Z,77.70
2023-05-19T05:39:17.502Z,77.80
2023-05-19T05:41:45.617Z,78.00
2023-05-19T05:44:13.102Z,78.10
2023-05-19T05:46:42.779Z,78.30
2023-05-19T05:49:12.465Z,78.40
2023-05-19T05:51:48.416Z,78.60
2023-05-19T05:54:22.802Z,78.70
2023-05-19T05:56:51.269Z,78.80
2023-05-19T05:59:18.391Z,79.00
2023-05-19T06:01:45.580Z,79.20
2023-05-19T06:04:12.761Z,79.30
2023-05-19T06:06:39.803Z,79.40
2023-05-19T06:09:07.970Z,79.60
2023-05-19T06:11:35.022Z,79.60
2023-05-19T06:14:04.570Z,79.50
2023-05-19T06:16:51.100Z,79.40
2023-05-19T06:19:20.003Z,79.40
2023-05-19T06:21:47.132Z,79.50
2023-05-19T06:24:15.263Z,79.60
2023-05-19T06:26:42.385Z,79.80
2023-05-19T06:29:09.476Z,80.10
2023-05-19T06:31:36.592Z,80.30
2023-05-19T06:34:12.423Z,80.40
2023-05-19T06:36:41.544Z,80.40
2023-05-19T06:39:09.456Z,80.20
2023-05-19T06:41:36.934Z,80.20
2023-05-19T06:44:04.681Z,80.40
2023-05-19T06:46:33.651Z,80.30
2023-05-19T06:49:01.099Z,80.10
2023-05-19T06:51:31.873Z,80.00
2023-05-19T06:54:00.160Z,79.90
2023-05-19T06:56:27.773Z,79.80
2023-05-19T06:58:56.315Z,79.70
2023-05-19T07:01:30.243Z,79.60
2023-05-19T07:03:58.552Z,79.60
2023-05-19T07:06:26.112Z,79.60
2023-05-19T07:08:53.299Z,79.50
2023-05-19T07:11:21.747Z,79.30
2023-05-19T07:13:49.234Z,79.00
2023-05-19T07:16:22.883Z,78.70
2023-05-19T07:18:50.011Z,78.50
2023-05-19T07:21:17.128Z,78.20
2023-05-19T07:23:44.162Z,78.00
2023-05-19T07:26:11.997Z,77.60
2023-05-19T07:28:41.482Z,77.20
2023-05-19T07:31:09.539Z,76.90
2023-05-19T07:33:36.584Z,76.50
2023-05-19T07:36:04.427Z,76.20
2023-05-19T07:38:34.548Z,75.90
2023-05-19T07:41:02.962Z,75.50
2023-05-19T07:43:30.126Z,75.50
2023-05-19T07:45:57.435Z,75.20
2023-05-19T07:48:25.819Z,74.90
2023-05-19T07:50:53.252Z,74.50
2023-05-19T07:53:20.910Z,74.10
2023-05-19T07:55:48.018Z,73.90
2023-05-19T07:58:15.723Z,73.80
2023-05-19T08:00:43.259Z,73.60
2023-05-19T08:03:10.801Z,73.10
2023-05-19T08:05:38.101Z,73.10
2023-05-19T08:08:05.422Z,73.40
2023-05-19T08:10:32.694Z,73.10
2023-05-19T08:12:59.877Z,72.60
2023-05-19T08:15:27.079Z,72.20
2023-05-19T08:17:54.187Z,72.00
2023-05-19T08:20:22.859Z,71.80
2023-05-19T08:22:50.093Z,71.50
2023-05-19T08:25:17.136Z,70.40
2023-05-19T08:27:44.131Z,69.60
2023-05-19T08:30:11.770Z,69.60
2023-05-19T08:32:38.968Z,69.10
2023-05-19T08:35:06.424Z,68.80
2023-05-19T08:37:34.285Z,68.60
2023-05-19T08:40:01.297Z,68.30
2023-05-19T08:42:28.333Z,68.20
2023-05-19T08:44:55.570Z,67.30
2023-05-19T08:47:22.932Z,67.00
2023-05-19T08:49:55.399Z,66.80
2023-05-19T08:52:33.327Z,66.70
2023-05-19T08:55:13.843Z,66.40
2023-05-19T08:57:41.665Z,65.70
2023-05-19T09:00:12.067Z,65.30
2023-05-19T09:02:50.412Z,65.00
2023-05-19T09:05:27.323Z,64.30
2023-05-19T09:07:55.125Z,63.80
2023-05-19T09:10:22.305Z,62.90
2023-05-19T09:12:49.913Z,62.70
2023-05-19T09:15:19.203Z,62.60
2023-05-19T09:17:48.109Z,62.60
2023-05-19T09:20:17.594Z,62.40
2023-05-19T09:22:47.714Z,62.00
2023-05-19T09:25:23.282Z,61.50
2023-05-19T09:27:51.182Z,60.50
2023-05-19T09:30:19.581Z,59.40
2023-05-19T09:32:49.234Z,58.80
2023-05-19T09:35:17.361Z,58.70
2023-05-19T09:37:44.567Z,59.20
2023-05-19T09:40:14.837Z,59.40
2023-05-19T09:42:43.179Z,59.40
2023-05-19T09:45:10.440Z,59.30
2023-05-19T09:47:38.818Z,59.20
2023-05-19T09:50:08.794Z,59.40
2023-05-19T09:52:39.370Z,58.60
2023-05-19T09:55:10.619Z,58.80
2023-05-19T09:57:40.241Z,58.70
2023-05-19T10:00:20.820Z,58.30
2023-05-19T10:02:48.487Z,58.00
2023-05-19T10:05:20.083Z,57.50
2023-05-19T10:07:50.099Z,56.80
2023-05-19T10:10:17.719Z,56.20
2023-05-19T10:12:45.411Z,55.60
2023-05-19T10:15:15.128Z,56.00
2023-05-19T10:17:43.765Z,56.00
2023-05-19T10:20:17.916Z,55.60
2023-05-19T10:22:46.534Z,54.90
2023-05-19T10:25:18.689Z,54.30
2023-05-19T10:28:15.094Z,54.30
2023-05-19T10:30:45.992Z,53.40
2023-05-19T10:33:17.344Z,53.20
2023-05-19T10:36:09.235Z,53.70
2023-05-19T10:39:02.193Z,51.60
2023-05-19T10:41:39.590Z,52.00
2023-05-19T10:44:37.073Z,52.00
2023-05-19T10:47:07.593Z,52.30
2023-05-19T10:49:36.677Z,52.10
2023-05-19T10:52:04.325Z,51.60
2023-05-19T10:54:43.093Z,51.50
2023-05-19T10:57:15.207Z,51.70
2023-05-19T10:59:44.675Z,51.80
2023-05-19T11:02:39.682Z,51.90
2023-05-19T11:05:15.008Z,51.00
2023-05-19T11:07:44.574Z,50.50
2023-05-19T11:10:12.486Z,51.00
2023-05-19T11:12:44.907Z,51.40
2023-05-19T11:15:14.164Z,51.70
2023-05-19T11:17:44.771Z,51.80
2023-05-19T11:20:25.700Z,50.80
2023-05-19T11:23:06.168Z,51.10
2023-05-19T11:25:50.024Z,51.70
2023-05-19T11:28:25.684Z,51.70
2023-05-19T11:30:57.523Z,51.80
2023-05-19T11:33:29.273Z,50.80
2023-05-19T11:35:59.950Z,49.60
2023-05-19T11:38:28.583Z,50.00
2023-05-19T11:40:56.486Z,49.80
2023-05-19T11:43:25.026Z,48.70
2023-05-19T11:45:53.445Z,49.50
2023-05-19T11:48:24.839Z,50.00
2023-05-19T11:50:52.618Z,50.10
2023-05-19T11:53:20.193Z,50.00
2023-05-19T11:55:48.417Z,48.50
2023-05-19T11:58:16.793Z,48.10
2023-05-19T12:00:46.160Z,47.90
2023-05-19T12:03:13.487Z,47.30
2023-05-19T12:05:46.743Z,47.80
2023-05-19T12:08:16.370Z,48.10
2023-05-19T12:10:43.413Z,47.60
2023-05-19T12:13:10.832Z,47.70
2023-05-19T12:15:39.020Z,47.80
2023-05-19T12:18:06.782Z,48.50
2023-05-19T12:20:36.116Z,45.80
2023-05-19T12:23:04.237Z,45.40
2023-05-19T12:25:32.079Z,45.50
2023-05-19T12:28:00.866Z,45.30
2023-05-19T12:30:29.456Z,45.40
2023-05-19T12:33:00.150Z,45.50
2023-05-19T12:35:33.627Z,46.20
2023-05-19T12:38:07.623Z,46.20
2023-05-19T12:40:36.498Z,46.20
2023-05-19T12:43:04.060Z,46.70
2023-05-19T12:45:42.661Z,46.60
2023-05-19T12:48:13.946Z,46.40
2023-05-19T12:50:41.022Z,45.90
2023-05-19T12:53:14.971Z,45.60
2023-05-19T12:55:43.546Z,45.60
2023-05-19T12:58:11.991Z,44.70
2023-05-19T13:00:45.206Z,44.50
2023-05-19T13:03:17.438Z,44.40
2023-05-19T13:05:47.061Z,45.40
2023-05-19T13:08:18.930Z,46.10
2023-05-19T13:10:47.678Z,46.40
2023-05-19T13:13:14.977Z,44.90
2023-05-19T13:15:43.856Z,44.90
2023-05-19T13:18:12.657Z,45.40
2023-05-19T13:20:41.988Z,45.10
2023-05-19T13:23:11.243Z,45.20
2023-05-19T13:25:38.662Z,45.70
2023-05-19T13:28:06.682Z,46.30
2023-05-19T13:30:35.620Z,45.90
2023-05-19T13:33:03.199Z,46.10
2023-05-19T13:35:36.748Z,46.50
2023-05-19T13:38:04.805Z,47.00
2023-05-19T13:40:34.684Z,47.40
2023-05-19T13:43:02.939Z,46.80
2023-05-19T13:45:30.335Z,46.50
2023-05-19T13:47:57.502Z,46.00
2023-05-19T13:50:24.510Z,45.50
2023-05-19T13:52:52.059Z,45.10
2023-05-19T13:55:19.271Z,45.20
2023-05-19T13:57:46.333Z,46.10
2023-05-19T14:00:13.945Z,46.10
2023-05-19T14:02:41.183Z,46.50
2023-05-19T14:05:08.670Z,46.90
2023-05-19T14:07:36.027Z,46.60
2023-05-19T14:10:05.585Z,46.50
2023-05-19T14:12:41.303Z,46.40
2023-05-19T14:15:14.768Z,46.40
2023-05-19T14:17:41.987Z,46.70
2023-05-19T14:20:09.780Z,47.00
2023-05-19T14:22:36.898Z,47.30
2023-05-19T14:25:04.141Z,47.40
2023-05-19T14:27:31.130Z,47.60
2023-05-19T14:29:58.208Z,48.10
2023-05-19T14:32:26.344Z,48.20
2023-05-19T14:34:54.985Z,48.00
2023-05-19T14:37:22.013Z,47.50
2023-05-19T14:39:49.756Z,46.70
2023-05-19T14:42:16.687Z,46.80
2023-05-19T14:44:43.766Z,46.80
2023-05-19T14:47:12.452Z,46.90
2023-05-19T14:49:39.667Z,46.60
2023-05-19T14:52:06.964Z,46.60
2023-05-19T14:54:34.161Z,46.50
2023-05-19T14:57:01.709Z,46.40
2023-05-19T14:59:29.775Z,45.90
2023-05-19T15:01:56.840Z,45.80
2023-05-19T15:04:23.937Z,45.80
2023-05-19T15:07:05.901Z,45.90
2023-05-19T15:09:36.644Z,46.00
2023-05-19T15:12:03.776Z,45.40
2023-05-19T15:14:31.425Z,45.10
2023-05-19T15:16:59.096Z,44.90
2023-05-19T15:19:26.451Z,44.90
2023-05-19T15:21:53.601Z,44.90
2023-05-19T15:24:20.746Z,44.80
2023-05-19T15:26:47.910Z,44.60
2023-05-19T15:29:14.970Z,44.30
2023-05-19T15:31:42.202Z,44.80
2023-05-19T15:34:09.379Z,45.50
2023-05-19T15:36:36.334Z,46.20
2023-05-19T15:39:03.932Z,46.70
2023-05-19T15:41:31.036Z,47.30
2023-05-19T15:44:00.292Z,47.50
2023-05-19T15:46:27.997Z,47.30
2023-05-19T15:48:55.328Z,47.50
2023-05-19T15:51:22.756Z,47.50
2023-05-19T15:53:49.814Z,47.70
2023-05-19T15:56:16.951Z,47.80
2023-05-19T15:58:44.045Z,47.90
2023-05-19T16:01:11.096Z,48.50
2023-05-19T16:03:38.228Z,48.30
2023-05-19T16:06:05.641Z,48.20
2023-05-19T16:08:32.699Z,47.90
2023-05-19T16:10:59.715Z,47.70
2023-05-19T16:13:26.800Z,47.90
2023-05-19T16:15:53.870Z,49.10
2023-05-19T16:18:20.987Z,49.00
2023-05-19T16:20:47.973Z,48.70
2023-05-19T16:23:14.994Z,48.90
2023-05-19T16:25:42.069Z,48.70
2023-05-19T16:28:09.145Z,49.20
2023-05-19T16:30:36.391Z,49.40
2023-05-19T16:33:03.742Z,49.50
2023-05-19T16:35:31.061Z,49.10
2023-05-19T16:37:58.409Z,49.00
2023-05-19T16:40:25.627Z,49.00
2023-05-19T16:42:55.537Z,49.30
2023-05-19T16:45:22.542Z,49.50
2023-05-19T16:47:49.569Z,49.30
2023-05-19T16:50:16.689Z,49.50
2023-05-19T16:52:43.874Z,49.50
2023-05-19T16:55:11.209Z,49.40
2023-05-19T16:57:38.444Z,49.40
2023-05-19T17:00:06.001Z,50.00
2023-05-19T17:02:33.145Z,50.10
2023-05-19T17:05:00.304Z,50.00
2023-05-19T17:07:29.199Z,49.90
2023-05-19T17:09:56.372Z,49.80
2023-05-19T17:12:23.664Z,50.30
2023-05-19T17:14:52.137Z,50.50
2023-05-19T17:17:19.269Z,50.40
2023-05-19T17:19:46.885Z,50.70
2023-05-19T17:22:13.876Z,50.90
2023-05-19T17:24:41.389Z,51.00
2023-05-19T17:27:08.418Z,51.70
2023-05-19T17:29:36.882Z,51.80
2023-05-19T17:32:04.505Z,52.00
2023-05-19T17:34:31.619Z,52.40
2023-05-19T17:36:58.630Z,52.50
2023-05-19T17:39:25.712Z,52.60
2023-05-19T17:41:52.741Z,52.40
2023-05-19T17:44:19.747Z,52.50
2023-05-19T17:46:46.861Z,53.10
2023-05-19T17:49:15.321Z,53.30
2023-05-19T17:51:42.602Z,53.40
2023-05-19T17:54:09.849Z,53.60
2023-05-19T17:56:42.473Z,53.70
2023-05-19T17:59:09.904Z,54.00
2023-05-19T18:01:37.226Z,54.30
2023-05-19T18:04:04.751Z,54.70
2023-05-19T18:06:32.276Z,55.20
2023-05-19T18:09:01.278Z,55.60
2023-05-19T18:11:28.659Z,55.80
2023-05-19T18:13:55.840Z,56.30
2023-05-19T18:16:22.876Z,56.70
2023-05-19T18:18:50.648Z,56.80
2023-05-19T18:21:18.208Z,57.00
2023-05-19T18:23:46.252Z,57.60
2023-05-19T18:26:13.475Z,58.10
2023-05-19T18:28:41.645Z,57.50
2023-05-19T18:31:09.391Z,57.50
2023-05-19T18:33:36.386Z,58.00
2023-05-19T18:36:03.526Z,58.50
2023-05-19T18:38:30.621Z,58.50
2023-05-19T18:40:57.808Z,58.70
2023-05-19T18:43:25.010Z,59.00
2023-05-19T18:45:52.075Z,59.40
2023-05-19T18:48:19.198Z,59.50
2023-05-19T18:50:46.533Z,59.70
2023-05-19T18:53:13.589Z,59.70
2023-05-19T18:55:40.618Z,59.80
2023-05-19T18:58:07.794Z,60.00
2023-05-19T19:00:36.558Z,60.00
2023-05-19T19:03:04.332Z,60.30
2023-05-19T19:05:31.392Z,60.40
2023-05-19T19:07:58.433Z,60.60
2023-05-19T19:10:25.617Z,60.70
2023-05-19T19:12:52.675Z,60.70
2023-05-19T19:15:19.662Z,60.80
2023-05-19T19:17:46.711Z,61.10
2023-05-19T19:20:13.933Z,61.20
2023-05-19T19:22:41.054Z,61.70
2023-05-19T19:25:08.490Z,61.70
2023-05-19T19:27:35.740Z,61.90
2023-05-19T19:30:02.944Z,62.10
2023-05-19T19:32:31.521Z,62.10
2023-05-19T19:34:58.693Z,62.40
2023-05-19T19:37:25.848Z,62.40
2023-05-19T19:39:52.914Z,62.50
2023-05-19T19:42:20.048Z,62.70
2023-05-19T19:44:47.041Z,62.80
2023-05-19T19:47:14.119Z,62.80
2023-05-19T19:49:41.412Z,63.20
2023-05-19T19:52:08.447Z,63.40
2023-05-19T19:54:35.479Z,63.50
2023-05-19T19:57:02.574Z,63.80
2023-05-19T19:59:30.584Z,63.80
2023-05-19T20:01:57.799Z,64.00
2023-05-19T20:04:25.013Z,64.20
2023-05-19T20:06:52.226Z,64.20
2023-05-19T20:09:19.270Z,64.50
2023-05-19T20:11:46.317Z,64.50
2023-05-19T20:14:13.331Z,64.70
2023-05-19T20:16:41.088Z,64.80
2023-05-19T20:19:09.381Z,64.90
2023-05-19T20:21:36.564Z,65.10
2023-05-19T20:24:03.647Z,65.10
2023-05-19T20:26:31.535Z,65.20
2023-05-19T20:28:59.030Z,65.40
2023-05-19T20:31:26.188Z,65.60
2023-05-19T20:33:53.253Z,65.70
2023-05-19T20:36:20.309Z,65.80
2023-05-19T20:38:47.996Z,65.90
2023-05-19T20:41:15.371Z,66.20
2023-05-19T20:43:42.520Z,66.40
2023-05-19T20:46:09.708Z,66.50
2023-05-19T20:48:36.867Z,66.60
2023-05-19T20:51:03.962Z,66.70
2023-05-19T20:53:30.981Z,66.80
2023-05-19T20:55:58.079Z,67.10
2023-05-19T20:58:29.999Z,67.00
2023-05-19T21:00:58.054Z,67.10
2023-05-19T21:03:26.827Z,67.20
2023-05-19T21:05:55.027Z,67.40
2023-05-19T21:08:22.654Z,67.40
2023-05-19T21:10:49.692Z,67.40
2023-05-19T21:13:17.763Z,67.60
2023-05-19T21:15:44.854Z,67.90
2023-05-19T21:18:12.482Z,68.10
2023-05-19T21:20:39.956Z,68.20
2023-05-19T21:23:06.962Z,68.30
2023-05-19T21:25:34.141Z,68.50
2023-05-19T21:28:01.206Z,68.70
2023-05-19T21:30:29.050Z,68.80
2023-05-19T21:32:56.220Z,69.10
2023-05-19T21:35:23.291Z,69.30
2023-05-19T21:37:50.368Z,69.50
2023-05-19T21:40:17.410Z,69.70
2023-05-19T21:42:44.394Z,70.10
2023-05-19T21:45:11.725Z,70.10
2023-05-19T21:47:38.871Z,70.10
2023-05-19T21:50:06.872Z,70.30
2023-05-19T21:52:36.153Z,70.30
2023-05-19T21:55:03.381Z,70.50
2023-05-19T21:57:30.410Z,70.60
2023-05-19T21:59:57.409Z,70.70
2023-05-19T22:02:24.565Z,70.80
2023-05-19T22:04:51.788Z,70.80
2023-05-19T22:07:18.817Z,71.00
2023-05-19T22:09:48.188Z,71.10
2023-05-19T22:12:15.958Z,71.30
2023-05-19T22:14:42.958Z,71.40
2023-05-19T22:17:09.957Z,71.40
2023-05-19T22:19:36.911Z,71.60
2023-05-19T22:22:12.940Z,71.80
2023-05-19T22:24:41.265Z,71.80
2023-05-19T22:27:08.835Z,71.90
2023-05-19T22:29:38.660Z,72.00
2023-05-19T22:32:09.323Z,72.10
2023-05-19T22:34:36.455Z,72.30
2023-05-19T22:37:03.515Z,72.30
2023-05-19T22:39:30.645Z,72.50
2023-05-19T22:41:57.738Z,72.60
2023-05-19T22:44:24.781Z,72.70
2023-05-19T22:46:51.817Z,72.70
2023-05-19T22:49:18.876Z,72.60
2023-05-19T22:51:45.868Z,72.60
2023-05-19T22:54:12.998Z,72.70
2023-05-19T22:56:40.218Z,72.70
2023-05-19T22:59:07.209Z,72.90
2023-05-19T23:01:34.244Z,72.90
2023-05-19T23:04:01.387Z,73.00
2023-05-19T23:06:28.413Z,73.00
2023-05-19T23:09:02.118Z,72.90
2023-05-19T23:11:29.163Z,72.90
2023-05-19T23:13:56.583Z,73.00
2023-05-19T23:16:23.681Z,73.00
2023-05-19T23:18:50.702Z,72.90
2023-05-19T23:21:17.697Z,72.90
2023-05-19T23:23:44.684Z,73.20
2023-05-19T23:26:13.617Z,73.40
2023-05-19T23:28:42.500Z,73.50
2023-05-19T23:31:10.347Z,73.60
2023-05-19T23:33:37.432Z,73.60
2023-05-19T23:36:09.474Z,73.60
2023-05-19T23:38:37.420Z,73.70
2023-05-19T23:41:05.124Z,73.70
2023-05-19T23:43:34.890Z,73.80
2023-05-19T23:46:02.270Z,73.90
2023-05-19T23:48:31.279Z,74.10
2023-05-19T23:50:58.844Z,74.20
2023-05-19T23:53:26.118Z,74.30
2023-05-19T23:55:53.110Z,74.30
2023-05-19T23:58:20.201Z,74.40
